sensor_id;sensor_type;location;lat;lon;timestamp;P1;durP1;ratioP1;P2;durP2;ratioP2
67904;SDS011;54709;43.614;1.576;2024-02-21T00:01:02;14.68;;;6.97;;
67904;SDS011;54709;43.614;1.576;2024-02-21T00:03:29;15.70;;;7.05;;
67904;SDS011;54709;43.614;1.576;2024-02-21T00:05:54;12.57;;;6.55;;
67904;SDS011;54709;43.614;1.576;2024-02-21T00:08:19;15.00;;;6.45;;
67904;SDS011;54709;43.614;1.576;2024-02-21T00:10:45;11.65;;;6.47;;
67904;SDS011;54709;43.614;1.576;2024-02-21T00:13:10;12.70;;;6.75;;
67904;SDS011;54709;43.614;1.576;2024-02-21T00:15:35;9.80;;;5.88;;
67904;SDS011;54709;43.614;1.576;2024-02-21T00:18:01;10.70;;;6.18;;
67904;SDS011;54709;43.614;1.576;2024-02-21T00:20:26;14.40;;;5.85;;
67904;SDS011;54709;43.614;1.576;2024-02-21T00:22:51;13.30;;;5.85;;
67904;SDS011;54709;43.614;1.576;2024-02-21T00:25:17;15.60;;;6.65;;
67904;SDS011;54709;43.614;1.576;2024-02-21T00:27:43;14.48;;;6.95;;
67904;SDS011;54709;43.614;1.576;2024-02-21T00:30:08;13.32;;;6.75;;
67904;SDS011;54709;43.614;1.576;2024-02-21T00:32:34;15.43;;;6.85;;
67904;SDS011;54709;43.614;1.576;2024-02-21T00:35:00;13.02;;;6.32;;
67904;SDS011;54709;43.614;1.576;2024-02-21T00:37:26;10.45;;;5.50;;
67904;SDS011;54709;43.614;1.576;2024-02-21T00:39:52;12.65;;;5.47;;
67904;SDS011;54709;43.614;1.576;2024-02-21T00:42:18;12.63;;;4.82;;
67904;SDS011;54709;43.614;1.576;2024-02-21T00:44:43;10.45;;;5.13;;
67904;SDS011;54709;43.614;1.576;2024-02-21T00:47:09;11.43;;;4.85;;
67904;SDS011;54709;43.614;1.576;2024-02-21T00:49:35;12.70;;;4.95;;
67904;SDS011;54709;43.614;1.576;2024-02-21T00:52:00;14.52;;;4.85;;
67904;SDS011;54709;43.614;1.576;2024-02-21T00:54:25;11.15;;;5.45;;
67904;SDS011;54709;43.614;1.576;2024-02-21T00:56:51;13.43;;;6.78;;
67904;SDS011;54709;43.614;1.576;2024-02-21T00:59:16;14.25;;;7.25;;
67904;SDS011;54709;43.614;1.576;2024-02-21T01:01:41;16.35;;;8.10;;
67904;SDS011;54709;43.614;1.576;2024-02-21T01:04:08;14.65;;;7.95;;
67904;SDS011;54709;43.614;1.576;2024-02-21T01:06:34;14.35;;;7.70;;
67904;SDS011;54709;43.614;1.576;2024-02-21T01:08:59;15.15;;;7.35;;
67904;SDS011;54709;43.614;1.576;2024-02-21T01:11:24;13.50;;;7.32;;
67904;SDS011;54709;43.614;1.576;2024-02-21T01:13:50;27.05;;;11.55;;
67904;SDS011;54709;43.614;1.576;2024-02-21T01:16:15;21.92;;;9.80;;
67904;SDS011;54709;43.614;1.576;2024-02-21T01:18:40;22.65;;;9.95;;
67904;SDS011;54709;43.614;1.576;2024-02-21T01:21:06;23.90;;;10.55;;
67904;SDS011;54709;43.614;1.576;2024-02-21T01:23:34;48.60;;;21.00;;
67904;SDS011;54709;43.614;1.576;2024-02-21T01:26:00;73.53;;;28.40;;
67904;SDS011;54709;43.614;1.576;2024-02-21T01:28:25;68.07;;;28.50;;
67904;SDS011;54709;43.614;1.576;2024-02-21T01:30:51;64.60;;;24.50;;
67904;SDS011;54709;43.614;1.576;2024-02-21T01:33:16;50.92;;;21.63;;
67904;SDS011;54709;43.614;1.576;2024-02-21T01:35:42;57.67;;;25.77;;
67904;SDS011;54709;43.614;1.576;2024-02-21T01:38:07;77.07;;;32.83;;
67904;SDS011;54709;43.614;1.576;2024-02-21T01:40:33;80.20;;;36.85;;
67904;SDS011;54709;43.614;1.576;2024-02-21T01:42:58;36.30;;;16.67;;
67904;SDS011;54709;43.614;1.576;2024-02-21T01:45:23;25.00;;;12.25;;
67904;SDS011;54709;43.614;1.576;2024-02-21T01:47:49;25.67;;;12.95;;
67904;SDS011;54709;43.614;1.576;2024-02-21T01:50:15;22.23;;;10.30;;
67904;SDS011;54709;43.614;1.576;2024-02-21T01:52:40;21.25;;;9.93;;
67904;SDS011;54709;43.614;1.576;2024-02-21T01:55:07;19.35;;;8.40;;
67904;SDS011;54709;43.614;1.576;2024-02-21T01:57:33;15.25;;;7.55;;
67904;SDS011;54709;43.614;1.576;2024-02-21T01:59:58;18.70;;;7.40;;
67904;SDS011;54709;43.614;1.576;2024-02-21T02:02:24;15.90;;;7.55;;
67904;SDS011;54709;43.614;1.576;2024-02-21T02:04:49;13.68;;;6.70;;
67904;SDS011;54709;43.614;1.576;2024-02-21T02:07:15;18.20;;;7.60;;
67904;SDS011;54709;43.614;1.576;2024-02-21T02:09:41;14.82;;;7.15;;
67904;SDS011;54709;43.614;1.576;2024-02-21T02:12:07;13.18;;;5.30;;
67904;SDS011;54709;43.614;1.576;2024-02-21T02:14:32;14.63;;;6.55;;
67904;SDS011;54709;43.614;1.576;2024-02-21T02:16:57;13.30;;;6.20;;
67904;SDS011;54709;43.614;1.576;2024-02-21T02:19:23;13.70;;;6.65;;
67904;SDS011;54709;43.614;1.576;2024-02-21T02:21:53;13.70;;;6.20;;
67904;SDS011;54709;43.614;1.576;2024-02-21T02:24:21;12.40;;;6.45;;
67904;SDS011;54709;43.614;1.576;2024-02-21T02:26:49;9.85;;;5.22;;
67904;SDS011;54709;43.614;1.576;2024-02-21T02:29:14;10.48;;;4.53;;
67904;SDS011;54709;43.614;1.576;2024-02-21T02:31:40;11.95;;;5.35;;
67904;SDS011;54709;43.614;1.576;2024-02-21T02:34:05;10.43;;;4.78;;
67904;SDS011;54709;43.614;1.576;2024-02-21T02:36:34;13.68;;;5.72;;
67904;SDS011;54709;43.614;1.576;2024-02-21T02:38:59;12.55;;;6.65;;
67904;SDS011;54709;43.614;1.576;2024-02-21T02:41:24;15.93;;;6.32;;
67904;SDS011;54709;43.614;1.576;2024-02-21T02:43:50;16.60;;;7.93;;
67904;SDS011;54709;43.614;1.576;2024-02-21T02:46:15;14.82;;;6.68;;
67904;SDS011;54709;43.614;1.576;2024-02-21T02:48:41;21.95;;;9.20;;
67904;SDS011;54709;43.614;1.576;2024-02-21T02:51:06;13.63;;;6.72;;
67904;SDS011;54709;43.614;1.576;2024-02-21T02:53:31;14.80;;;6.38;;
67904;SDS011;54709;43.614;1.576;2024-02-21T02:55:57;14.75;;;6.43;;
67904;SDS011;54709;43.614;1.576;2024-02-21T02:58:22;13.90;;;5.82;;
67904;SDS011;54709;43.614;1.576;2024-02-21T03:00:48;12.10;;;5.35;;
67904;SDS011;54709;43.614;1.576;2024-02-21T03:03:13;13.18;;;5.38;;
67904;SDS011;54709;43.614;1.576;2024-02-21T03:05:38;13.75;;;6.20;;
67904;SDS011;54709;43.614;1.576;2024-02-21T03:08:04;16.05;;;6.70;;
67904;SDS011;54709;43.614;1.576;2024-02-21T03:10:32;14.98;;;7.20;;
67904;SDS011;54709;43.614;1.576;2024-02-21T03:12:58;17.88;;;7.28;;
67904;SDS011;54709;43.614;1.576;2024-02-21T03:15:23;15.30;;;7.63;;
67904;SDS011;54709;43.614;1.576;2024-02-21T03:17:49;17.40;;;7.53;;
67904;SDS011;54709;43.614;1.576;2024-02-21T03:20:14;14.40;;;6.97;;
67904;SDS011;54709;43.614;1.576;2024-02-21T03:22:40;15.35;;;6.68;;
67904;SDS011;54709;43.614;1.576;2024-02-21T03:25:05;9.18;;;5.63;;
67904;SDS011;54709;43.614;1.576;2024-02-21T03:27:31;14.43;;;6.75;;
67904;SDS011;54709;43.614;1.576;2024-02-21T03:29:57;20.15;;;10.13;;
67904;SDS011;54709;43.614;1.576;2024-02-21T03:32:22;21.08;;;12.02;;
67904;SDS011;54709;43.614;1.576;2024-02-21T03:34:48;20.38;;;10.45;;
67904;SDS011;54709;43.614;1.576;2024-02-21T03:37:13;26.38;;;14.23;;
67904;SDS011;54709;43.614;1.576;2024-02-21T03:39:39;20.30;;;12.45;;
67904;SDS011;54709;43.614;1.576;2024-02-21T03:42:05;27.75;;;14.30;;
67904;SDS011;54709;43.614;1.576;2024-02-21T03:44:31;17.60;;;9.77;;
67904;SDS011;54709;43.614;1.576;2024-02-21T03:46:57;17.80;;;9.77;;
67904;SDS011;54709;43.614;1.576;2024-02-21T03:49:23;16.25;;;8.63;;
67904;SDS011;54709;43.614;1.576;2024-02-21T03:51:48;13.65;;;7.18;;
67904;SDS011;54709;43.614;1.576;2024-02-21T03:54:13;11.95;;;6.72;;
67904;SDS011;54709;43.614;1.576;2024-02-21T03:56:39;15.32;;;7.55;;
67904;SDS011;54709;43.614;1.576;2024-02-21T03:59:07;20.92;;;7.20;;
67904;SDS011;54709;43.614;1.576;2024-02-21T04:01:33;9.90;;;6.63;;
67904;SDS011;54709;43.614;1.576;2024-02-21T04:03:59;13.45;;;6.22;;
67904;SDS011;54709;43.614;1.576;2024-02-21T04:06:24;10.70;;;5.93;;
67904;SDS011;54709;43.614;1.576;2024-02-21T04:08:50;11.18;;;5.57;;
67904;SDS011;54709;43.614;1.576;2024-02-21T04:11:15;12.93;;;6.05;;
67904;SDS011;54709;43.614;1.576;2024-02-21T04:13:42;8.25;;;4.57;;
67904;SDS011;54709;43.614;1.576;2024-02-21T04:16:07;11.73;;;4.95;;
67904;SDS011;54709;43.614;1.576;2024-02-21T04:18:33;9.55;;;4.85;;
67904;SDS011;54709;43.614;1.576;2024-02-21T04:20:58;12.43;;;5.07;;
67904;SDS011;54709;43.614;1.576;2024-02-21T04:23:23;10.27;;;4.80;;
67904;SDS011;54709;43.614;1.576;2024-02-21T04:25:49;11.20;;;4.70;;
67904;SDS011;54709;43.614;1.576;2024-02-21T04:28:14;13.18;;;5.18;;
67904;SDS011;54709;43.614;1.576;2024-02-21T04:30:40;8.38;;;5.15;;
67904;SDS011;54709;43.614;1.576;2024-02-21T04:33:05;14.27;;;6.63;;
67904;SDS011;54709;43.614;1.576;2024-02-21T04:35:30;10.85;;;5.47;;
67904;SDS011;54709;43.614;1.576;2024-02-21T04:37:56;13.13;;;5.85;;
67904;SDS011;54709;43.614;1.576;2024-02-21T04:40:21;10.55;;;5.35;;
67904;SDS011;54709;43.614;1.576;2024-02-21T04:42:46;14.23;;;5.97;;
67904;SDS011;54709;43.614;1.576;2024-02-21T04:45:12;10.50;;;5.50;;
67904;SDS011;54709;43.614;1.576;2024-02-21T04:47:37;11.43;;;5.80;;
67904;SDS011;54709;43.614;1.576;2024-02-21T04:50:03;10.30;;;4.95;;
67904;SDS011;54709;43.614;1.576;2024-02-21T04:52:28;11.30;;;5.28;;
67904;SDS011;54709;43.614;1.576;2024-02-21T04:54:54;12.10;;;5.13;;
67904;SDS011;54709;43.614;1.576;2024-02-21T04:57:20;12.65;;;5.38;;
67904;SDS011;54709;43.614;1.576;2024-02-21T04:59:45;10.55;;;5.10;;
67904;SDS011;54709;43.614;1.576;2024-02-21T05:02:12;9.40;;;4.75;;
67904;SDS011;54709;43.614;1.576;2024-02-21T05:04:40;10.82;;;5.05;;
67904;SDS011;54709;43.614;1.576;2024-02-21T05:07:06;9.35;;;4.85;;
67904;SDS011;54709;43.614;1.576;2024-02-21T05:09:32;8.60;;;4.70;;
67904;SDS011;54709;43.614;1.576;2024-02-21T05:11:58;8.95;;;4.55;;
67904;SDS011;54709;43.614;1.576;2024-02-21T05:14:26;9.40;;;4.85;;
67904;SDS011;54709;43.614;1.576;2024-02-21T05:16:55;12.05;;;4.68;;
67904;SDS011;54709;43.614;1.576;2024-02-21T05:19:21;12.20;;;4.85;;
67904;SDS011;54709;43.614;1.576;2024-02-21T05:21:46;14.15;;;5.60;;
67904;SDS011;54709;43.614;1.576;2024-02-21T05:24:11;10.48;;;4.75;;
67904;SDS011;54709;43.614;1.576;2024-02-21T05:26:37;8.15;;;5.15;;
67904;SDS011;54709;43.614;1.576;2024-02-21T05:29:02;7.85;;;5.25;;
67904;SDS011;54709;43.614;1.576;2024-02-21T05:31:42;11.13;;;5.47;;
67904;SDS011;54709;43.614;1.576;2024-02-21T05:34:20;10.23;;;6.18;;
67904;SDS011;54709;43.614;1.576;2024-02-21T05:36:45;10.70;;;5.97;;
67904;SDS011;54709;43.614;1.576;2024-02-21T05:39:11;13.35;;;7.32;;
67904;SDS011;54709;43.614;1.576;2024-02-21T05:41:36;12.38;;;7.15;;
67904;SDS011;54709;43.614;1.576;2024-02-21T05:44:02;12.65;;;6.72;;
67904;SDS011;54709;43.614;1.576;2024-02-21T05:46:27;12.93;;;6.20;;
67904;SDS011;54709;43.614;1.576;2024-02-21T05:48:53;12.43;;;6.65;;
67904;SDS011;54709;43.614;1.576;2024-02-21T05:51:18;11.70;;;6.50;;
67904;SDS011;54709;43.614;1.576;2024-02-21T05:53:44;12.75;;;6.45;;
67904;SDS011;54709;43.614;1.576;2024-02-21T05:56:12;11.35;;;6.28;;
67904;SDS011;54709;43.614;1.576;2024-02-21T05:58:38;13.02;;;6.15;;
67904;SDS011;54709;43.614;1.576;2024-02-21T06:01:04;16.80;;;6.43;;
67904;SDS011;54709;43.614;1.576;2024-02-21T06:03:30;14.40;;;7.55;;
67904;SDS011;54709;43.614;1.576;2024-02-21T06:05:55;10.80;;;7.22;;
67904;SDS011;54709;43.614;1.576;2024-02-21T06:08:21;11.25;;;6.65;;
67904;SDS011;54709;43.614;1.576;2024-02-21T06:10:46;12.55;;;6.78;;
67904;SDS011;54709;43.614;1.576;2024-02-21T06:13:13;12.20;;;6.35;;
67904;SDS011;54709;43.614;1.576;2024-02-21T06:15:38;9.95;;;6.07;;
67904;SDS011;54709;43.614;1.576;2024-02-21T06:18:04;10.88;;;5.95;;
67904;SDS011;54709;43.614;1.576;2024-02-21T06:20:29;7.63;;;4.85;;
67904;SDS011;54709;43.614;1.576;2024-02-21T06:22:55;8.40;;;4.85;;
67904;SDS011;54709;43.614;1.576;2024-02-21T06:25:20;10.43;;;5.70;;
67904;SDS011;54709;43.614;1.576;2024-02-21T06:27:45;10.63;;;5.55;;
67904;SDS011;54709;43.614;1.576;2024-02-21T06:30:11;6.85;;;5.18;;
67904;SDS011;54709;43.614;1.576;2024-02-21T06:32:36;12.32;;;5.95;;
67904;SDS011;54709;43.614;1.576;2024-02-21T06:35:03;13.05;;;6.00;;
67904;SDS011;54709;43.614;1.576;2024-02-21T06:37:29;10.73;;;5.35;;
67904;SDS011;54709;43.614;1.576;2024-02-21T06:39:55;11.85;;;5.93;;
67904;SDS011;54709;43.614;1.576;2024-02-21T06:42:20;9.73;;;6.05;;
67904;SDS011;54709;43.614;1.576;2024-02-21T06:44:46;11.77;;;5.53;;
67904;SDS011;54709;43.614;1.576;2024-02-21T06:47:11;13.50;;;6.10;;
67904;SDS011;54709;43.614;1.576;2024-02-21T06:49:37;10.55;;;5.47;;
67904;SDS011;54709;43.614;1.576;2024-02-21T06:52:04;10.75;;;5.63;;
67904;SDS011;54709;43.614;1.576;2024-02-21T06:54:30;11.98;;;6.05;;
67904;SDS011;54709;43.614;1.576;2024-02-21T06:56:55;12.15;;;6.05;;
67904;SDS011;54709;43.614;1.576;2024-02-21T06:59:21;10.15;;;5.78;;
67904;SDS011;54709;43.614;1.576;2024-02-21T07:01:51;10.90;;;5.53;;
67904;SDS011;54709;43.614;1.576;2024-02-21T07:06:43;8.68;;;5.40;;
67904;SDS011;54709;43.614;1.576;2024-02-21T07:09:08;9.18;;;5.57;;
67904;SDS011;54709;43.614;1.576;2024-02-21T07:11:34;8.38;;;5.30;;
67904;SDS011;54709;43.614;1.576;2024-02-21T07:13:59;12.38;;;5.47;;
67904;SDS011;54709;43.614;1.576;2024-02-21T07:16:24;10.27;;;5.40;;
67904;SDS011;54709;43.614;1.576;2024-02-21T07:18:51;9.73;;;5.28;;
67904;SDS011;54709;43.614;1.576;2024-02-21T07:21:16;10.02;;;5.90;;
67904;SDS011;54709;43.614;1.576;2024-02-21T07:23:42;12.52;;;5.72;;
67904;SDS011;54709;43.614;1.576;2024-02-21T07:26:07;11.00;;;6.30;;
67904;SDS011;54709;43.614;1.576;2024-02-21T07:28:33;14.07;;;6.13;;
67904;SDS011;54709;43.614;1.576;2024-02-21T07:30:59;14.20;;;6.30;;
67904;SDS011;54709;43.614;1.576;2024-02-21T07:33:24;12.38;;;6.63;;
67904;SDS011;54709;43.614;1.576;2024-02-21T07:35:50;13.73;;;6.22;;
67904;SDS011;54709;43.614;1.576;2024-02-21T07:38:15;11.68;;;6.00;;
67904;SDS011;54709;43.614;1.576;2024-02-21T07:40:44;15.75;;;6.47;;
67904;SDS011;54709;43.614;1.576;2024-02-21T07:43:10;12.82;;;5.88;;
67904;SDS011;54709;43.614;1.576;2024-02-21T07:45:35;16.25;;;6.30;;
67904;SDS011;54709;43.614;1.576;2024-02-21T07:48:00;13.38;;;6.20;;
67904;SDS011;54709;43.614;1.576;2024-02-21T07:50:26;10.30;;;5.40;;
67904;SDS011;54709;43.614;1.576;2024-02-21T07:52:51;12.27;;;5.82;;
67904;SDS011;54709;43.614;1.576;2024-02-21T07:55:17;13.27;;;6.18;;
67904;SDS011;54709;43.614;1.576;2024-02-21T07:57:42;10.13;;;6.03;;
67904;SDS011;54709;43.614;1.576;2024-02-21T08:00:08;12.70;;;5.97;;
67904;SDS011;54709;43.614;1.576;2024-02-21T08:02:35;11.18;;;6.28;;
67904;SDS011;54709;43.614;1.576;2024-02-21T08:05:00;13.30;;;6.20;;
67904;SDS011;54709;43.614;1.576;2024-02-21T08:07:26;12.68;;;6.05;;
67904;SDS011;54709;43.614;1.576;2024-02-21T08:09:54;10.52;;;5.95;;
67904;SDS011;54709;43.614;1.576;2024-02-21T08:12:19;13.55;;;6.10;;
67904;SDS011;54709;43.614;1.576;2024-02-21T08:14:45;14.32;;;6.05;;
67904;SDS011;54709;43.614;1.576;2024-02-21T08:17:10;12.95;;;5.70;;
67904;SDS011;54709;43.614;1.576;2024-02-21T08:19:35;11.60;;;5.63;;
67904;SDS011;54709;43.614;1.576;2024-02-21T08:22:01;10.02;;;5.35;;
67904;SDS011;54709;43.614;1.576;2024-02-21T08:24:26;12.00;;;6.13;;
67904;SDS011;54709;43.614;1.576;2024-02-21T08:26:52;11.90;;;5.32;;
67904;SDS011;54709;43.614;1.576;2024-02-21T08:29:17;8.88;;;5.00;;
67904;SDS011;54709;43.614;1.576;2024-02-21T08:31:42;9.13;;;4.75;;
67904;SDS011;54709;43.614;1.576;2024-02-21T08:34:08;11.80;;;5.32;;
67904;SDS011;54709;43.614;1.576;2024-02-21T08:36:33;9.93;;;5.20;;
67904;SDS011;54709;43.614;1.576;2024-02-21T08:38:59;9.73;;;4.90;;
67904;SDS011;54709;43.614;1.576;2024-02-21T08:41:25;16.23;;;5.47;;
67904;SDS011;54709;43.614;1.576;2024-02-21T08:43:51;9.73;;;5.18;;
67904;SDS011;54709;43.614;1.576;2024-02-21T08:46:18;8.88;;;4.30;;
67904;SDS011;54709;43.614;1.576;2024-02-21T08:48:47;10.45;;;4.53;;
67904;SDS011;54709;43.614;1.576;2024-02-21T08:51:13;12.25;;;4.57;;
67904;SDS011;54709;43.614;1.576;2024-02-21T08:53:38;7.15;;;4.25;;
67904;SDS011;54709;43.614;1.576;2024-02-21T08:56:04;11.43;;;4.30;;
67904;SDS011;54709;43.614;1.576;2024-02-21T08:58:30;12.00;;;4.57;;
67904;SDS011;54709;43.614;1.576;2024-02-21T09:00:56;7.90;;;4.07;;
67904;SDS011;54709;43.614;1.576;2024-02-21T09:03:21;10.55;;;4.28;;
67904;SDS011;54709;43.614;1.576;2024-02-21T09:05:47;8.77;;;3.88;;
67904;SDS011;54709;43.614;1.576;2024-02-21T09:08:12;7.72;;;3.67;;
67904;SDS011;54709;43.614;1.576;2024-02-21T09:10:39;8.20;;;3.28;;
67904;SDS011;54709;43.614;1.576;2024-02-21T09:13:04;8.30;;;3.40;;
67904;SDS011;54709;43.614;1.576;2024-02-21T09:15:30;7.35;;;3.33;;
67904;SDS011;54709;43.614;1.576;2024-02-21T09:17:56;12.00;;;3.70;;
67904;SDS011;54709;43.614;1.576;2024-02-21T09:20:21;7.13;;;3.50;;
67904;SDS011;54709;43.614;1.576;2024-02-21T09:22:47;8.02;;;3.50;;
67904;SDS011;54709;43.614;1.576;2024-02-21T09:25:12;6.53;;;3.63;;
67904;SDS011;54709;43.614;1.576;2024-02-21T09:27:38;8.02;;;2.88;;
67904;SDS011;54709;43.614;1.576;2024-02-21T09:30:04;7.60;;;3.60;;
67904;SDS011;54709;43.614;1.576;2024-02-21T09:32:30;7.65;;;3.53;;
67904;SDS011;54709;43.614;1.576;2024-02-21T09:34:57;9.05;;;3.58;;
67904;SDS011;54709;43.614;1.576;2024-02-21T09:37:22;7.20;;;3.33;;
67904;SDS011;54709;43.614;1.576;2024-02-21T09:39:48;7.28;;;3.55;;
67904;SDS011;54709;43.614;1.576;2024-02-21T09:42:15;6.57;;;3.10;;
67904;SDS011;54709;43.614;1.576;2024-02-21T09:44:45;6.93;;;2.92;;
67904;SDS011;54709;43.614;1.576;2024-02-21T09:47:32;4.57;;;2.90;;
67904;SDS011;54709;43.614;1.576;2024-02-21T09:50:23;5.03;;;2.90;;
67904;SDS011;54709;43.614;1.576;2024-02-21T09:52:50;6.28;;;3.10;;
67904;SDS011;54709;43.614;1.576;2024-02-21T09:55:16;7.72;;;2.85;;
67904;SDS011;54709;43.614;1.576;2024-02-21T09:57:43;7.35;;;3.05;;
67904;SDS011;54709;43.614;1.576;2024-02-21T10:00:09;6.88;;;2.83;;
67904;SDS011;54709;43.614;1.576;2024-02-21T10:02:35;8.23;;;2.92;;
67904;SDS011;54709;43.614;1.576;2024-02-21T10:05:01;8.65;;;2.97;;
67904;SDS011;54709;43.614;1.576;2024-02-21T10:07:29;5.97;;;2.75;;
67904;SDS011;54709;43.614;1.576;2024-02-21T10:10:01;4.88;;;2.70;;
67904;SDS011;54709;43.614;1.576;2024-02-21T10:12:30;4.65;;;2.70;;
67904;SDS011;54709;43.614;1.576;2024-02-21T10:15:02;6.68;;;2.58;;
67904;SDS011;54709;43.614;1.576;2024-02-21T10:17:28;5.05;;;2.50;;
67904;SDS011;54709;43.614;1.576;2024-02-21T10:19:53;5.05;;;2.10;;
67904;SDS011;54709;43.614;1.576;2024-02-21T10:22:19;6.28;;;2.50;;
67904;SDS011;54709;43.614;1.576;2024-02-21T10:24:46;3.90;;;2.00;;
67904;SDS011;54709;43.614;1.576;2024-02-21T10:27:11;5.15;;;2.17;;
67904;SDS011;54709;43.614;1.576;2024-02-21T10:29:37;5.65;;;1.92;;
67904;SDS011;54709;43.614;1.576;2024-02-21T10:32:04;5.30;;;1.90;;
67904;SDS011;54709;43.614;1.576;2024-02-21T10:34:47;6.63;;;1.60;;
67904;SDS011;54709;43.614;1.576;2024-02-21T10:37:16;4.95;;;1.90;;
67904;SDS011;54709;43.614;1.576;2024-02-21T10:39:42;4.88;;;1.77;;
67904;SDS011;54709;43.614;1.576;2024-02-21T10:42:10;5.70;;;1.88;;
67904;SDS011;54709;43.614;1.576;2024-02-21T10:44:37;4.20;;;1.60;;
67904;SDS011;54709;43.614;1.576;2024-02-21T10:47:08;5.25;;;1.85;;
67904;SDS011;54709;43.614;1.576;2024-02-21T10:49:37;2.45;;;1.45;;
67904;SDS011;54709;43.614;1.576;2024-02-21T10:52:13;4.55;;;1.75;;
67904;SDS011;54709;43.614;1.576;2024-02-21T10:54:45;3.22;;;1.50;;
67904;SDS011;54709;43.614;1.576;2024-02-21T10:57:15;2.72;;;1.50;;
67904;SDS011;54709;43.614;1.576;2024-02-21T10:59:40;3.85;;;1.60;;
67904;SDS011;54709;43.614;1.576;2024-02-21T11:02:06;5.03;;;1.60;;
67904;SDS011;54709;43.614;1.576;2024-02-21T11:04:32;4.07;;;1.52;;
67904;SDS011;54709;43.614;1.576;2024-02-21T11:07:01;4.50;;;1.50;;
67904;SDS011;54709;43.614;1.576;2024-02-21T11:09:29;3.78;;;1.50;;
67904;SDS011;54709;43.614;1.576;2024-02-21T11:11:56;4.18;;;1.50;;
67904;SDS011;54709;43.614;1.576;2024-02-21T11:14:25;3.65;;;1.60;;
67904;SDS011;54709;43.614;1.576;2024-02-21T11:16:51;3.42;;;1.48;;
67904;SDS011;54709;43.614;1.576;2024-02-21T11:19:21;3.38;;;1.42;;
67904;SDS011;54709;43.614;1.576;2024-02-21T11:21:48;2.70;;;1.42;;
67904;SDS011;54709;43.614;1.576;2024-02-21T11:24:25;5.57;;;1.45;;
67904;SDS011;54709;43.614;1.576;2024-02-21T11:26:54;3.40;;;1.58;;
67904;SDS011;54709;43.614;1.576;2024-02-21T11:29:25;4.00;;;1.50;;
67904;SDS011;54709;43.614;1.576;2024-02-21T11:34:19;4.32;;;1.58;;
67904;SDS011;54709;43.614;1.576;2024-02-21T11:36:48;5.25;;;1.42;;
67904;SDS011;54709;43.614;1.576;2024-02-21T11:39:33;3.88;;;1.42;;
67904;SDS011;54709;43.614;1.576;2024-02-21T11:42:04;1.77;;;1.23;;
67904;SDS011;54709;43.614;1.576;2024-02-21T11:44:32;3.17;;;1.60;;
67904;SDS011;54709;43.614;1.576;2024-02-21T11:46:59;3.20;;;1.58;;
67904;SDS011;54709;43.614;1.576;2024-02-21T11:49:25;3.70;;;1.33;;
67904;SDS011;54709;43.614;1.576;2024-02-21T11:52:00;3.47;;;1.50;;
67904;SDS011;54709;43.614;1.576;2024-02-21T11:54:26;4.93;;;1.42;;
67904;SDS011;54709;43.614;1.576;2024-02-21T11:56:52;3.03;;;1.20;;
67904;SDS011;54709;43.614;1.576;2024-02-21T11:59:17;3.85;;;1.10;;
67904;SDS011;54709;43.614;1.576;2024-02-21T12:01:43;3.67;;;1.20;;
67904;SDS011;54709;43.614;1.576;2024-02-21T12:04:08;4.65;;;1.35;;
67904;SDS011;54709;43.614;1.576;2024-02-21T12:06:34;3.03;;;1.35;;
67904;SDS011;54709;43.614;1.576;2024-02-21T12:08:59;5.20;;;1.20;;
67904;SDS011;54709;43.614;1.576;2024-02-21T12:11:24;3.85;;;1.67;;
67904;SDS011;54709;43.614;1.576;2024-02-21T12:13:59;3.97;;;1.35;;
67904;SDS011;54709;43.614;1.576;2024-02-21T12:16:31;4.32;;;1.30;;
67904;SDS011;54709;43.614;1.576;2024-02-21T12:18:57;2.90;;;1.15;;
67904;SDS011;54709;43.614;1.576;2024-02-21T12:21:24;3.40;;;1.40;;
67904;SDS011;54709;43.614;1.576;2024-02-21T12:23:50;3.45;;;1.52;;
67904;SDS011;54709;43.614;1.576;2024-02-21T12:26:16;2.30;;;1.30;;
67904;SDS011;54709;43.614;1.576;2024-02-21T12:28:41;4.72;;;1.17;;
67904;SDS011;54709;43.614;1.576;2024-02-21T12:31:07;2.15;;;1.05;;
67904;SDS011;54709;43.614;1.576;2024-02-21T12:33:32;2.92;;;1.20;;
67904;SDS011;54709;43.614;1.576;2024-02-21T12:35:58;3.17;;;1.27;;
67904;SDS011;54709;43.614;1.576;2024-02-21T12:38:23;5.55;;;1.35;;
67904;SDS011;54709;43.614;1.576;2024-02-21T12:40:48;2.38;;;1.25;;
67904;SDS011;54709;43.614;1.576;2024-02-21T12:43:14;1.73;;;1.10;;
67904;SDS011;54709;43.614;1.576;2024-02-21T12:45:39;2.15;;;1.38;;
67904;SDS011;54709;43.614;1.576;2024-02-21T12:48:05;3.85;;;1.65;;
67904;SDS011;54709;43.614;1.576;2024-02-21T12:50:30;1.95;;;1.13;;
67904;SDS011;54709;43.614;1.576;2024-02-21T12:52:56;3.28;;;1.50;;
67904;SDS011;54709;43.614;1.576;2024-02-21T12:55:23;1.95;;;1.23;;
67904;SDS011;54709;43.614;1.576;2024-02-21T12:57:48;3.38;;;2.00;;
67904;SDS011;54709;43.614;1.576;2024-02-21T13:00:14;3.15;;;1.52;;
67904;SDS011;54709;43.614;1.576;2024-02-21T13:02:39;2.80;;;1.50;;
67904;SDS011;54709;43.614;1.576;2024-02-21T13:05:05;2.90;;;1.70;;
67904;SDS011;54709;43.614;1.576;2024-02-21T13:07:31;4.38;;;1.77;;
67904;SDS011;54709;43.614;1.576;2024-02-21T13:09:57;5.95;;;2.85;;
67904;SDS011;54709;43.614;1.576;2024-02-21T13:12:22;3.72;;;2.22;;
67904;SDS011;54709;43.614;1.576;2024-02-21T13:14:48;3.50;;;2.15;;
67904;SDS011;54709;43.614;1.576;2024-02-21T13:17:13;3.22;;;1.88;;
67904;SDS011;54709;43.614;1.576;2024-02-21T13:19:40;3.45;;;1.52;;
67904;SDS011;54709;43.614;1.576;2024-02-21T13:22:05;3.47;;;1.60;;
67904;SDS011;54709;43.614;1.576;2024-02-21T13:24:31;4.13;;;1.73;;
67904;SDS011;54709;43.614;1.576;2024-02-21T13:26:57;5.22;;;1.60;;
67904;SDS011;54709;43.614;1.576;2024-02-21T13:29:22;5.18;;;1.88;;
67904;SDS011;54709;43.614;1.576;2024-02-21T13:31:47;4.70;;;1.30;;
67904;SDS011;54709;43.614;1.576;2024-02-21T13:34:14;3.28;;;1.60;;
67904;SDS011;54709;43.614;1.576;2024-02-21T13:36:40;5.20;;;1.60;;
67904;SDS011;54709;43.614;1.576;2024-02-21T13:39:05;8.32;;;1.60;;
67904;SDS011;54709;43.614;1.576;2024-02-21T13:41:32;3.47;;;1.30;;
67904;SDS011;54709;43.614;1.576;2024-02-21T13:43:58;3.70;;;1.60;;
67904;SDS011;54709;43.614;1.576;2024-02-21T13:46:25;5.38;;;1.60;;
67904;SDS011;54709;43.614;1.576;2024-02-21T13:48:52;9.23;;;5.70;;
67904;SDS011;54709;43.614;1.576;2024-02-21T13:51:19;3.90;;;1.95;;
67904;SDS011;54709;43.614;1.576;2024-02-21T13:53:45;3.10;;;1.45;;
67904;SDS011;54709;43.614;1.576;2024-02-21T13:56:10;4.28;;;1.60;;
67904;SDS011;54709;43.614;1.576;2024-02-21T13:58:35;3.10;;;1.20;;
67904;SDS011;54709;43.614;1.576;2024-02-21T14:01:02;2.65;;;1.75;;
67904;SDS011;54709;43.614;1.576;2024-02-21T14:03:28;8.45;;;3.40;;
67904;SDS011;54709;43.614;1.576;2024-02-21T14:05:53;3.90;;;2.10;;
67904;SDS011;54709;43.614;1.576;2024-02-21T14:08:18;13.05;;;6.40;;
67904;SDS011;54709;43.614;1.576;2024-02-21T14:10:44;14.95;;;7.95;;
67904;SDS011;54709;43.614;1.576;2024-02-21T14:13:09;13.05;;;8.35;;
67904;SDS011;54709;43.614;1.576;2024-02-21T14:15:34;3.55;;;1.85;;
67904;SDS011;54709;43.614;1.576;2024-02-21T14:18:01;3.08;;;1.40;;
67904;SDS011;54709;43.614;1.576;2024-02-21T14:20:27;9.43;;;6.93;;
67904;SDS011;54709;43.614;1.576;2024-02-21T14:22:53;10.80;;;6.80;;
67904;SDS011;54709;43.614;1.576;2024-02-21T14:25:18;12.82;;;8.40;;
67904;SDS011;54709;43.614;1.576;2024-02-21T14:27:44;3.28;;;1.77;;
67904;SDS011;54709;43.614;1.576;2024-02-21T14:30:09;10.18;;;5.75;;
67904;SDS011;54709;43.614;1.576;2024-02-21T14:32:38;5.28;;;2.03;;
67904;SDS011;54709;43.614;1.576;2024-02-21T14:35:05;4.10;;;2.00;;
67904;SDS011;54709;43.614;1.576;2024-02-21T14:37:31;6.97;;;3.45;;
67904;SDS011;54709;43.614;1.576;2024-02-21T14:39:56;6.40;;;3.50;;